createdAt,value
2017-08-09T00:01:08.252Z,3.67
2017-08-09T00:03:36.432Z,4.27
2017-08-09T00:06:04.685Z,4.20
2017-08-09T00:08:34.419Z,4.37
2017-08-09T00:11:04.259Z,4.00
2017-08-09T00:13:33.194Z,3.97
2017-08-09T00:16:01.416Z,4.27
2017-08-09T00:18:29.646Z,4.10
2017-08-09T00:20:57.868Z,4.67
2017-08-09T00:23:26.020Z,3.90
2017-08-09T00:25:54.254Z,4.50
2017-08-09T00:28:22.504Z,4.07
2017-08-09T00:30:50.648Z,4.47
2017-08-09T00:33:18.795Z,5.00
2017-08-09T00:35:47.383Z,4.87
2017-08-09T00:38:15.544Z,4.47
2017-08-09T00:40:43.686Z,4.60
2017-08-09T00:43:11.844Z,4.50
2017-08-09T00:45:39.976Z,4.00
2017-08-09T00:48:08.461Z,4.30
2017-08-09T00:50:36.591Z,4.47
2017-08-09T00:53:04.979Z,4.70
2017-08-09T00:55:33.152Z,4.17
2017-08-09T00:58:01.287Z,4.47
2017-08-09T01:00:29.442Z,4.70
2017-08-09T01:02:57.581Z,4.60
2017-08-09T01:05:25.719Z,4.60
2017-08-09T01:07:53.865Z,5.20
2017-08-09T01:10:22.777Z,4.27
2017-08-09T01:12:50.942Z,4.70
2017-08-09T01:15:19.094Z,4.53
2017-08-09T01:17:47.984Z,4.00
2017-08-09T01:20:16.234Z,4.90
2017-08-09T01:22:44.406Z,4.47
2017-08-09T01:25:12.616Z,5.40
2017-08-09T01:27:40.776Z,4.93
2017-08-09T01:30:09.052Z,5.20
2017-08-09T01:32:37.312Z,5.40
2017-08-09T01:35:05.485Z,5.57
2017-08-09T01:37:33.633Z,5.60
2017-08-09T01:40:02.565Z,5.67
2017-08-09T01:42:30.794Z,5.23
2017-08-09T01:44:59.686Z,5.30
2017-08-09T01:47:27.912Z,6.20
2017-08-09T01:49:56.097Z,6.20
2017-08-09T01:52:24.315Z,6.67
2017-08-09T01:54:52.438Z,6.60
2017-08-09T01:57:20.568Z,6.90
2017-08-09T01:59:49.104Z,6.30
2017-08-09T02:02:17.513Z,6.83
2017-08-09T02:04:45.668Z,7.57
2017-08-09T02:07:13.814Z,6.90
2017-08-09T02:09:41.948Z,7.50
2017-08-09T02:12:10.118Z,6.70
2017-08-09T02:14:38.240Z,8.20
2017-08-09T02:17:06.637Z,8.30
2017-08-09T02:19:35.512Z,8.40
2017-08-09T02:22:03.851Z,7.90
2017-08-09T02:24:32.050Z,8.20
2017-08-09T02:27:00.194Z,8.37
2017-08-09T02:29:28.371Z,8.60
2017-08-09T02:31:56.478Z,8.67
2017-08-09T02:34:24.618Z,9.23
2017-08-09T02:36:52.788Z,10.00
2017-08-09T02:39:20.964Z,9.50
2017-08-09T02:41:49.946Z,10.00
2017-08-09T02:44:18.088Z,10.20
2017-08-09T02:46:46.269Z,11.37
2017-08-09T02:49:14.417Z,10.83
2017-08-09T02:51:42.566Z,9.70
2017-08-09T02:54:10.738Z,11.43
2017-08-09T02:56:38.884Z,10.70
2017-08-09T02:59:08.156Z,11.20
2017-08-09T03:01:36.319Z,10.50
2017-08-09T03:04:04.543Z,10.70
2017-08-09T03:06:32.736Z,11.33
2017-08-09T03:09:00.912Z,10.23
2017-08-09T03:11:29.857Z,9.87
2017-08-09T03:13:58.008Z,10.53
2017-08-09T03:16:26.958Z,10.77
2017-08-09T03:18:55.161Z,12.10
2017-08-09T03:21:23.426Z,11.83
2017-08-09T03:23:52.712Z,11.87
2017-08-09T03:26:20.899Z,13.43
2017-08-09T03:28:49.074Z,11.63
2017-08-09T03:31:18.034Z,13.30
2017-08-09T03:33:46.224Z,11.63
2017-08-09T03:36:14.406Z,12.80
2017-08-09T03:38:42.549Z,12.80
2017-08-09T03:41:10.705Z,13.80
2017-08-09T03:43:38.834Z,13.43
2017-08-09T03:46:07.028Z,13.50
2017-08-09T03:48:35.194Z,15.07
2017-08-09T03:51:04.178Z,13.87
2017-08-09T03:53:32.406Z,16.27
2017-08-09T03:56:00.583Z,17.80
2017-08-09T03:58:28.790Z,18.23
2017-08-09T04:00:57.699Z,19.47
2017-08-09T04:03:25.866Z,18.60
2017-08-09T04:05:54.046Z,18.50
2017-08-09T04:08:22.223Z,19.00
2017-08-09T04:10:50.492Z,20.50
2017-08-09T04:13:18.671Z,20.70
2017-08-09T04:15:46.974Z,21.30
2017-08-09T04:18:15.171Z,22.90
2017-08-09T04:20:43.304Z,22.10
2017-08-09T04:23:11.516Z,24.33
2017-08-09T04:25:39.654Z,25.97
2017-08-09T04:28:07.814Z,27.13
2017-08-09T04:30:35.965Z,26.47
2017-08-09T04:33:04.143Z,27.53
2017-08-09T04:35:33.142Z,26.80
2017-08-09T04:38:01.415Z,27.40
2017-08-09T04:40:29.664Z,28.30
2017-08-09T04:42:57.856Z,29.00
2017-08-09T04:45:26.290Z,28.67
2017-08-09T04:47:54.503Z,28.63
2017-08-09T04:50:22.714Z,29.97
2017-08-09T04:52:51.340Z,29.67
2017-08-09T04:55:19.508Z,29.13
2017-08-09T04:57:47.647Z,29.97
2017-08-09T05:00:15.785Z,29.60
2017-08-09T05:02:44.573Z,26.40
2017-08-09T05:05:12.784Z,28.27
2017-08-09T05:07:40.996Z,26.83
2017-08-09T05:10:09.259Z,27.03
2017-08-09T05:12:37.405Z,25.67
2017-08-09T05:15:05.542Z,25.17
2017-08-09T05:17:33.739Z,26.67
2017-08-09T05:20:01.912Z,26.33
2017-08-09T05:22:30.087Z,25.13
2017-08-09T05:24:58.215Z,27.70
2017-08-09T05:27:26.359Z,26.27
2017-08-09T05:29:54.564Z,26.27
2017-08-09T05:32:22.736Z,25.63
2017-08-09T05:34:50.913Z,23.53
2017-08-09T05:37:19.823Z,25.10
2017-08-09T05:39:48.003Z,23.57
2017-08-09T05:42:16.972Z,25.17
2017-08-09T05:44:45.938Z,25.07
2017-08-09T05:47:14.124Z,22.73
2017-08-09T05:49:42.325Z,22.57
2017-08-09T05:52:11.425Z,22.37
2017-08-09T05:54:39.600Z,21.90
2017-08-09T05:57:07.796Z,20.00
2017-08-09T05:59:35.979Z,20.13
2017-08-09T06:02:04.156Z,19.37
2017-08-09T06:04:32.529Z,19.30
2017-08-09T06:07:01.491Z,18.60
2017-08-09T06:09:29.764Z,16.67
2017-08-09T06:11:58.053Z,16.77
2017-08-09T06:14:27.042Z,16.47
2017-08-09T06:16:56.030Z,17.43
2017-08-09T06:19:24.208Z,17.57
2017-08-09T06:21:53.172Z,16.70
2017-08-09T06:24:22.030Z,13.70
2017-08-09T06:26:50.163Z,13.10
2017-08-09T06:29:18.337Z,13.53
2017-08-09T06:31:46.520Z,12.60
2017-08-09T06:34:14.874Z,11.07
2017-08-09T06:36:43.892Z,12.57
2017-08-09T06:39:12.105Z,11.63
2017-08-09T06:41:40.294Z,11.37
2017-08-09T06:44:08.454Z,10.27
2017-08-09T06:46:36.619Z,10.77
2017-08-09T06:49:04.746Z,10.70
2017-08-09T06:51:32.894Z,10.20
2017-08-09T06:54:01.669Z,10.17
2017-08-09T06:56:29.986Z,9.33
2017-08-09T06:58:58.162Z,8.23
2017-08-09T07:01:26.329Z,8.83
2017-08-09T07:03:54.732Z,10.83
2017-08-09T07:06:22.913Z,9.83
2017-08-09T07:08:51.830Z,7.93
2017-08-09T07:11:20.051Z,8.30
2017-08-09T07:13:48.962Z,7.93
2017-08-09T07:16:17.139Z,8.10
2017-08-09T07:18:45.260Z,8.60
2017-08-09T07:21:13.792Z,8.40
2017-08-09T07:23:41.965Z,7.53
2017-08-09T07:26:10.162Z,6.93
2017-08-09T07:28:39.204Z,7.50
2017-08-09T07:31:07.351Z,7.30
2017-08-09T07:33:35.500Z,6.37
2017-08-09T07:36:03.643Z,6.60
2017-08-09T07:38:31.797Z,6.40
2017-08-09T07:41:00.112Z,6.43
2017-08-09T07:43:28.284Z,6.20
2017-08-09T07:45:56.420Z,6.80
2017-08-09T07:48:24.577Z,6.90
2017-08-09T07:50:52.711Z,6.70
2017-08-09T07:53:20.889Z,5.73
2017-08-09T07:55:49.198Z,5.90
2017-08-09T07:58:17.324Z,5.23
2017-08-09T08:00:45.566Z,5.30
2017-08-09T08:03:13.685Z,5.07
2017-08-09T08:05:41.862Z,5.20
2017-08-09T08:08:09.998Z,5.30
2017-08-09T08:10:38.142Z,4.43
2017-08-09T08:13:07.064Z,4.70
2017-08-09T08:15:35.196Z,5.03
2017-08-09T08:18:03.366Z,4.47
2017-08-09T08:20:31.491Z,4.40
2017-08-09T08:22:59.709Z,5.00
2017-08-09T08:25:28.629Z,3.80
2017-08-09T08:27:56.798Z,5.50
2017-08-09T08:30:24.998Z,6.30
2017-08-09T08:32:53.128Z,6.00
2017-08-09T08:35:21.269Z,6.50
2017-08-09T08:37:49.412Z,5.97
2017-08-09T08:40:18.512Z,5.30
2017-08-09T08:42:46.662Z,4.73
2017-08-09T08:45:14.820Z,4.90
2017-08-09T08:47:43.009Z,5.90
2017-08-09T08:50:11.171Z,4.40
2017-08-09T08:52:39.305Z,5.77
2017-08-09T08:55:07.465Z,5.67
2017-08-09T08:57:35.620Z,4.90
2017-08-09T09:00:03.779Z,5.30
2017-08-09T09:02:32.304Z,4.10
2017-08-09T09:05:00.431Z,4.77
2017-08-09T09:07:28.633Z,5.80
2017-08-09T09:09:56.745Z,5.27
2017-08-09T09:12:24.944Z,4.87
2017-08-09T09:14:53.062Z,4.83
2017-08-09T09:17:21.226Z,5.13
2017-08-09T09:19:49.380Z,4.10
2017-08-09T09:22:17.520Z,4.43
2017-08-09T09:24:45.744Z,3.10
2017-08-09T09:27:14.608Z,5.17
2017-08-09T09:29:42.778Z,4.10
2017-08-09T09:32:10.920Z,4.67
2017-08-09T09:34:39.101Z,3.77
2017-08-09T09:37:08.145Z,4.77
2017-08-09T09:39:37.110Z,4.10
2017-08-09T09:42:05.265Z,4.20
2017-08-09T09:44:33.403Z,3.10
2017-08-09T09:47:01.660Z,4.00
2017-08-09T09:49:29.810Z,3.90
2017-08-09T09:51:58.021Z,3.83
2017-08-09T09:54:26.150Z,3.53
2017-08-09T09:56:54.270Z,3.30
2017-08-09T09:59:22.446Z,3.40
2017-08-09T10:01:50.590Z,3.30
2017-08-09T10:04:18.806Z,3.13
2017-08-09T10:06:46.948Z,3.60
2017-08-09T10:09:15.831Z,3.17
2017-08-09T10:11:43.998Z,2.60
2017-08-09T10:14:12.141Z,3.23
2017-08-09T10:16:40.273Z,3.03
2017-08-09T10:19:08.434Z,3.20
2017-08-09T10:21:36.578Z,2.77
2017-08-09T10:24:04.764Z,2.97
2017-08-09T10:26:32.937Z,2.77
2017-08-09T10:29:01.117Z,2.20
2017-08-09T10:31:29.329Z,2.13
2017-08-09T10:33:57.546Z,2.63
2017-08-09T10:36:25.701Z,2.10
2017-08-09T10:38:54.944Z,2.47
2017-08-09T10:41:23.141Z,2.40
2017-08-09T10:43:51.344Z,2.60
2017-08-09T10:46:19.597Z,2.90
2017-08-09T10:48:47.766Z,2.70
2017-08-09T10:51:16.094Z,2.70
2017-08-09T10:53:44.371Z,3.30
2017-08-09T10:56:12.565Z,2.90
2017-08-09T10:58:40.710Z,2.93
2017-08-09T11:01:08.921Z,2.73
2017-08-09T11:03:37.108Z,2.93
2017-08-09T11:06:05.316Z,3.30
2017-08-09T11:08:34.496Z,3.17
2017-08-09T11:11:02.915Z,3.00
2017-08-09T11:13:31.114Z,2.70
2017-08-09T11:15:59.332Z,3.13
2017-08-09T11:18:27.511Z,3.47
2017-08-09T11:20:55.668Z,2.77
2017-08-09T11:23:23.810Z,3.60
2017-08-09T11:25:51.986Z,3.50
2017-08-09T11:28:21.021Z,3.10
2017-08-09T11:30:50.112Z,2.80
2017-08-09T11:33:18.321Z,2.80
2017-08-09T11:35:46.478Z,3.43
2017-08-09T11:38:14.665Z,3.00
2017-08-09T11:40:43.169Z,3.00
2017-08-09T11:43:11.376Z,2.93
2017-08-09T11:45:39.697Z,3.10
2017-08-09T11:48:07.927Z,3.00
2017-08-09T11:50:36.914Z,3.10
2017-08-09T11:53:05.082Z,2.87
2017-08-09T11:55:34.316Z,2.53
2017-08-09T11:58:02.511Z,2.53
2017-08-09T12:00:30.651Z,2.60
2017-08-09T12:02:59.606Z,3.50
2017-08-09T12:05:27.753Z,2.77
2017-08-09T12:07:55.893Z,2.83
2017-08-09T12:10:24.072Z,3.03
2017-08-09T12:12:52.222Z,2.70
2017-08-09T12:15:20.421Z,2.77
2017-08-09T12:17:48.600Z,2.40
2017-08-09T12:20:16.772Z,2.63
2017-08-09T12:22:45.004Z,2.80
2017-08-09T12:25:14.751Z,2.80
2017-08-09T12:27:43.048Z,2.87
2017-08-09T12:30:11.388Z,2.90
2017-08-09T12:32:39.652Z,3.13
2017-08-09T12:35:09.790Z,3.10
2017-08-09T12:37:38.931Z,2.90
2017-08-09T12:40:07.198Z,2.73
2017-08-09T12:42:35.378Z,3.17
2017-08-09T12:45:03.593Z,3.03
2017-08-09T12:47:31.764Z,3.93
2017-08-09T12:50:00.483Z,3.67
2017-08-09T12:52:28.676Z,3.20
2017-08-09T12:54:57.708Z,3.60
2017-08-09T12:57:26.284Z,3.20
2017-08-09T12:59:58.896Z,3.07
2017-08-09T13:02:27.045Z,2.90
2017-08-09T13:04:55.183Z,3.30
2017-08-09T13:07:24.148Z,3.73
2017-08-09T13:09:52.277Z,3.33
2017-08-09T13:12:20.449Z,3.80
2017-08-09T13:14:48.624Z,4.00
2017-08-09T13:17:16.831Z,8.83
2017-08-09T13:19:44.989Z,20.23
2017-08-09T13:22:13.148Z,5.03
2017-08-09T13:24:42.057Z,4.17
2017-08-09T13:27:10.188Z,4.83
2017-08-09T13:29:38.352Z,4.70
2017-08-09T13:32:06.518Z,4.27
2017-08-09T13:34:34.700Z,4.63
2017-08-09T13:37:02.844Z,3.90
2017-08-09T13:39:31.008Z,4.20
2017-08-09T13:41:59.160Z,4.30
2017-08-09T13:44:27.370Z,4.30
2017-08-09T13:46:55.538Z,4.60
2017-08-09T13:49:23.719Z,4.10
2017-08-09T13:51:52.686Z,3.90
2017-08-09T13:54:20.856Z,4.67
2017-08-09T13:56:49.036Z,5.07
2017-08-09T13:59:17.252Z,4.77
2017-08-09T14:01:45.583Z,4.17
2017-08-09T14:04:13.800Z,3.87
2017-08-09T14:06:42.022Z,3.87
2017-08-09T14:09:10.592Z,4.70
2017-08-09T14:11:38.838Z,4.60
2017-08-09T14:14:07.029Z,11.10
2017-08-09T14:16:35.217Z,9.30
2017-08-09T14:19:03.386Z,6.10
2017-08-09T14:21:31.554Z,5.23
2017-08-09T14:24:00.256Z,4.87
2017-08-09T14:26:29.033Z,5.73
2017-08-09T14:28:57.184Z,4.43
2017-08-09T14:31:25.353Z,4.90
2017-08-09T14:33:53.578Z,4.80
2017-08-09T14:36:21.809Z,4.83
2017-08-09T14:38:50.777Z,5.50
2017-08-09T14:41:18.959Z,5.90
2017-08-09T14:43:47.116Z,4.80
2017-08-09T14:46:15.341Z,4.67
2017-08-09T14:48:43.570Z,4.43
2017-08-09T14:51:11.735Z,4.53
2017-08-09T14:53:39.851Z,3.80
2017-08-09T14:56:08.020Z,5.50
2017-08-09T14:58:36.188Z,12.00
2017-08-09T15:01:04.319Z,5.50
2017-08-09T15:03:32.615Z,5.40
2017-08-09T15:06:01.554Z,5.50
2017-08-09T15:08:29.719Z,5.40
2017-08-09T15:10:58.183Z,5.37
2017-08-09T15:13:26.612Z,4.53
2017-08-09T15:15:54.838Z,5.00
2017-08-09T15:18:23.019Z,4.70
2017-08-09T15:20:51.282Z,12.63
2017-08-09T15:23:19.433Z,4.10
2017-08-09T15:25:48.353Z,4.10
2017-08-09T15:28:17.344Z,4.10
2017-08-09T15:30:45.583Z,4.30
2017-08-09T15:33:13.789Z,4.70
2017-08-09T15:35:42.209Z,4.53
2017-08-09T15:38:11.134Z,4.63
2017-08-09T15:40:39.282Z,4.63
2017-08-09T15:43:07.434Z,5.43
2017-08-09T15:45:35.668Z,5.37
2017-08-09T15:48:03.866Z,3.93
2017-08-09T15:50:32.059Z,4.53
2017-08-09T15:53:01.056Z,4.47
2017-08-09T15:55:29.240Z,4.20
2017-08-09T15:57:57.463Z,4.00
2017-08-09T16:00:25.679Z,4.27
2017-08-09T16:02:53.897Z,4.20
2017-08-09T16:05:22.075Z,3.60
2017-08-09T16:07:50.196Z,3.97
2017-08-09T16:10:18.378Z,4.07
2017-08-09T16:12:46.616Z,4.10
2017-08-09T16:15:14.821Z,3.83
2017-08-09T16:17:43.135Z,4.17
2017-08-09T16:20:11.295Z,3.93
2017-08-09T16:22:40.244Z,4.33
2017-08-09T16:25:08.397Z,4.20
2017-08-09T16:27:36.697Z,4.23
2017-08-09T16:30:04.912Z,4.47
2017-08-09T16:32:33.161Z,4.50
2017-08-09T16:35:01.705Z,4.40
2017-08-09T16:37:29.914Z,4.40
2017-08-09T16:42:54.658Z,5.43
2017-08-09T16:45:42.279Z,4.80
2017-08-09T16:48:14.603Z,5.60
2017-08-09T16:50:43.184Z,4.60
2017-08-09T16:53:11.484Z,4.57
2017-08-09T16:55:39.793Z,4.57
2017-08-09T16:58:07.932Z,4.80
2017-08-09T17:00:36.306Z,5.30
2017-08-09T17:03:05.312Z,6.00
2017-08-09T17:05:33.502Z,4.97
2017-08-09T17:08:02.448Z,5.03
2017-08-09T17:10:30.549Z,6.17
2017-08-09T17:12:58.737Z,5.57
2017-08-09T17:15:27.788Z,6.47
2017-08-09T17:17:55.930Z,6.17
2017-08-09T17:20:24.127Z,6.57
2017-08-09T17:22:53.331Z,7.27
2017-08-09T17:25:21.455Z,6.37
2017-08-09T17:27:49.646Z,5.97
2017-08-09T17:30:17.807Z,5.67
2017-08-09T17:32:45.925Z,7.23
2017-08-09T17:35:14.088Z,8.00
2017-08-09T17:37:42.226Z,8.63
2017-08-09T17:40:10.385Z,8.40
2017-08-09T17:42:38.517Z,8.03
2017-08-09T17:45:06.913Z,7.50
2017-08-09T17:47:35.166Z,8.47
2017-08-09T17:50:03.361Z,8.73
2017-08-09T17:52:31.887Z,7.50
2017-08-09T17:55:00.206Z,8.37
2017-08-09T17:57:28.527Z,8.40
2017-08-09T17:59:56.707Z,9.10
2017-08-09T18:02:25.076Z,9.43
2017-08-09T18:04:55.606Z,9.33
2017-08-09T18:07:24.527Z,9.80
2017-08-09T18:09:52.833Z,9.53
2017-08-09T18:12:21.025Z,19.00
2017-08-09T18:14:49.143Z,17.10
2017-08-09T18:17:17.861Z,15.57
2017-08-09T18:19:46.032Z,14.43
2017-08-09T18:22:14.204Z,14.97
2017-08-09T18:24:43.136Z,11.20
2017-08-09T18:27:11.925Z,12.63
2017-08-09T18:29:40.085Z,11.47
2017-08-09T18:32:08.232Z,13.20
2017-08-09T18:34:36.397Z,13.20
2017-08-09T18:37:04.553Z,13.03
2017-08-09T18:39:32.751Z,13.73
2017-08-09T18:42:00.894Z,13.03
2017-08-09T18:44:29.079Z,12.67
2017-08-09T18:46:57.245Z,13.50
2017-08-09T18:49:25.451Z,12.13
2017-08-09T18:51:53.584Z,13.20
2017-08-09T18:54:21.771Z,13.97
2017-08-09T18:56:50.860Z,12.43
2017-08-09T18:59:19.755Z,11.83
2017-08-09T19:01:47.960Z,11.77
2017-08-09T19:04:16.128Z,14.50
2017-08-09T19:06:44.385Z,12.20
2017-08-09T19:09:12.587Z,11.20
2017-08-09T19:11:40.873Z,11.60
2017-08-09T19:14:10.059Z,11.87
2017-08-09T19:16:38.444Z,12.00
2017-08-09T19:19:06.594Z,13.73
2017-08-09T19:21:34.817Z,13.57
2017-08-09T19:24:03.079Z,12.47
2017-08-09T19:26:32.161Z,12.60
2017-08-09T19:29:00.332Z,12.03
2017-08-09T19:31:28.511Z,12.00
2017-08-09T19:33:56.677Z,12.77
2017-08-09T19:36:25.680Z,11.73
2017-08-09T19:38:53.846Z,11.63
2017-08-09T19:41:22.114Z,11.67
2017-08-09T19:43:50.432Z,11.80
2017-08-09T19:46:18.601Z,11.03
2017-08-09T19:48:47.956Z,12.63
2017-08-09T19:51:16.129Z,14.63
2017-08-09T19:53:46.293Z,11.20
2017-08-09T19:56:19.375Z,11.40
2017-08-09T19:58:49.545Z,12.53
2017-08-09T20:01:19.216Z,11.00
2017-08-09T20:03:47.623Z,10.80
2017-08-09T20:06:15.787Z,11.17
2017-08-09T20:08:45.835Z,11.37
2017-08-09T20:11:14.173Z,11.30
2017-08-09T20:13:43.786Z,10.83
2017-08-09T20:16:13.848Z,10.57
2017-08-09T20:18:43.299Z,10.70
2017-08-09T20:21:16.029Z,11.17
2017-08-09T20:23:48.675Z,9.87
2017-08-09T20:26:17.777Z,10.40
2017-08-09T20:28:46.110Z,12.10
2017-08-09T20:31:14.820Z,11.13
2017-08-09T20:33:43.450Z,10.27
2017-08-09T20:36:11.700Z,9.00
2017-08-09T20:38:40.135Z,10.97
2017-08-09T20:41:08.764Z,11.07
2017-08-09T20:43:37.657Z,11.07
2017-08-09T20:46:06.945Z,10.90
2017-08-09T20:48:36.132Z,11.17
2017-08-09T20:51:04.556Z,10.87
2017-08-09T20:53:33.422Z,12.37
2017-08-09T20:56:03.160Z,12.10
2017-08-09T20:58:31.347Z,11.17
2017-08-09T21:00:59.538Z,12.23
2017-08-09T21:03:27.768Z,15.93
2017-08-09T21:05:56.828Z,15.83
2017-08-09T21:08:25.081Z,15.20
2017-08-09T21:10:53.620Z,16.33
2017-08-09T21:13:22.674Z,16.73
2017-08-09T21:15:51.648Z,14.77
2017-08-09T21:18:21.481Z,15.87
2017-08-09T21:20:50.076Z,16.17
2017-08-09T21:23:19.353Z,16.00
2017-08-09T21:25:47.893Z,17.10
2017-08-09T21:28:17.400Z,15.43
2017-08-09T21:30:46.248Z,15.70
2017-08-09T21:33:15.852Z,16.20
2017-08-09T21:35:46.013Z,15.20
2017-08-09T21:38:26.025Z,15.93
2017-08-09T21:40:55.269Z,15.67
2017-08-09T21:43:25.956Z,15.30
2017-08-09T21:45:54.630Z,13.43
2017-08-09T21:48:24.565Z,14.10
2017-08-09T21:50:53.609Z,13.67
2017-08-09T21:53:23.152Z,13.97
2017-08-09T21:55:54.624Z,14.83
2017-08-09T21:58:26.471Z,13.10
2017-08-09T22:00:55.088Z,13.73
2017-08-09T22:03:23.774Z,14.43
2017-08-09T22:05:52.509Z,14.43
2017-08-09T22:08:26.319Z,15.70
2017-08-09T22:11:04.269Z,17.47
2017-08-09T22:13:34.187Z,16.77
2017-08-09T22:16:05.485Z,17.50
2017-08-09T22:18:36.109Z,17.97
2017-08-09T22:21:06.120Z,16.30
2017-08-09T22:23:34.836Z,15.27
2017-08-09T22:26:04.491Z,16.80
2017-08-09T22:28:34.428Z,14.73
2017-08-09T22:31:04.487Z,17.87
2017-08-09T22:33:33.751Z,18.80
2017-08-09T22:36:05.286Z,19.67
2017-08-09T22:38:33.809Z,19.30
2017-08-09T22:41:02.371Z,20.23
2017-08-09T22:43:31.151Z,18.77
2017-08-09T22:46:03.344Z,18.77
2017-08-09T22:48:34.492Z,20.30
2017-08-09T22:51:05.630Z,20.97
2017-08-09T22:53:35.760Z,18.73
2017-08-09T22:56:06.253Z,19.83
2017-08-09T22:58:35.047Z,19.60
2017-08-09T23:01:07.318Z,18.63
2017-08-09T23:03:37.877Z,19.70
2017-08-09T23:06:08.160Z,21.10
2017-08-09T23:08:37.129Z,19.47
2017-08-09T23:11:08.296Z,21.03
2017-08-09T23:13:38.423Z,20.37
2017-08-09T23:16:06.630Z,21.27
2017-08-09T23:18:36.537Z,22.40
2017-08-09T23:21:07.442Z,22.47
2017-08-09T23:23:35.965Z,24.27
2017-08-09T23:26:04.527Z,22.30
2017-08-09T23:28:34.526Z,22.70
2017-08-09T23:31:03.367Z,21.30
2017-08-09T23:33:32.321Z,22.93
2017-08-09T23:36:02.424Z,23.50
2017-08-09T23:38:31.062Z,22.87
2017-08-09T23:41:00.209Z,22.20
2017-08-09T23:43:28.556Z,23.40
2017-08-09T23:45:56.777Z,22.80
2017-08-09T23:48:25.382Z,23.00
2017-08-09T23:50:54.222Z,23.93
2017-08-09T23:53:23.301Z,24.40
2017-08-09T23:55:51.705Z,22.30
2017-08-09T23:58:21.626Z,23.27
